Ozark Regional Airport
KBPK : now visible

Aeroporto :











RITROVATECI SU...

 
LOGIN :

Iscrizione | Disclaimer

   EN    FR    IT 

 









Sommario :    VFR   VFR Marginale   IFR   IFR Intensivo   IFR Molto Intensivo
Visibilità : 
Base nubi : 
>= 8 km
>= 3000ft
5 / 8 km
1000 / 3000 ft
1500m / 5 km
500 / 1000 ft
800 / 1500m
200 / 500 ft
< 800m
< 200 ft
Simboli :   Temporali  Nebbia  Neve Forte  Precipitazioni Forti  Vento > 20 kt






- Altitudine del aeroporto : 928 ft


KBPK - Ozark Regional

ULTIMO METAR :
  • 231953Z AUTO 18006KT 10SM -RA OVC040 09/04 A3004 RMK AO2 RAB42 SLP172 P0000 T00940039

METARs OBSOLETI :
  • 231853Z AUTO 21005KT 10SM OVC040 09/03 A3006 RMK AO2 RAB1754E06 SLP178 P0000 T00940028
  • 231753Z AUTO 18006KT 10SM OVC049 09/03 A3010 RMK AO2 RAE50 SLP192 P0000 60000 T00940033 10094 20056 58006

TAF KBPK
Valido dal 23 a 18 ore il 24 a 18 ore UTC


231730Z 2318/2418 19007KT P6SM -RA OVC090
FM232200 15008KT 5SM -SHRA BR BKN008 OVC015
FM240500 13008G16KT 4SM SHRA BR BKN005 OVC012 WS020/19040KT
PROB30 2406/2412 2SM -TSRA BR OVC005CB
FM241200 18011KT P6SM -RA OVC025



MetMap, La meteo Aeronautica in un colpo d'occhio ! - Copyright ORBIFLY Dicembre 2007 - Disclaimer

ORBIFLY MET'MAP TEAM :

Programmazione e sviluppo : Alexandra Zaïnal
Concezione : Baudouin d'Aumeries
Aiuto per la programmazione : Marc-Olivier Méhu
Supporto tecnico e logistico : Manuel Goepfert
Aiuto per la traduzione : Arnaldo La Scala

Contatto : metmap@orbifly.com




FONTI E CREDITI :

   NOAA       Earth
Advisory